Terminal Aerodrome Forecast
Issued by NWS Riverton, WY

Home | Current Version | Previous Version | Text Only | Print | Product List | Glossary On
Versions: 1 2 3 4 5 6 7 8 9 10 11 12 13 14 15
971
FTUS45 KRIW 241131
TAFRIW
TAF
KRIW 241131Z 2412/2512 28010KT P6SM SKC
     FM241500 VRB05KT P6SM SCT250
     FM242100 VRB06KT P6SM SCT110
     FM250300 28008KT P6SM SCT110 SCT150=

USA.gov is the U.S. government's official web portal to all federal, state and local government web resources and services.